KFLO

Florence Regional Airport

Florence, South Carolina, USA
METAR KFLO 161516Z 28004KT 10SM CLR 08/02 A3012 RMK AO2 T00830017
Observed Flight Rules
Nov-16 @ 15:16 UTC (49 minutes ago) Visual Flight Rules
Wind Visibility Clouds
280° at 4 knots 10 miles
  • Clear skies
Temperatures Readings
Current 8°C / 46°F
Dewpoint 2°C / 36°F
Humidity 66%
Altimeter 30.12" Hg
Pressure 1020 hPa
Elevation 44
METAR KFLO 161516Z 28004KT 10SM CLR 08/02 A3012 RMK AO2 T00830017
Observed Flight Rules
Nov-16 @ 15:16 UTC
(49 minutes ago)
VFR
Wind Visibility
280° at 4 knots 10 miles
Clouds
  • Clear skies
Temperature Dewpoint
8°C / 46°F 2°C / 36°F
Humidity Altimeter Pressure
66% 30.12" Hg 1020 hPa